Matsushiro, Japan

11:48 AM JST on July 04, 2015 (GMT +0900)
Matsumoto | | Change Station
CLOSE
Current Station
Airport
Location: Matsumoto Airport,
Elevation: 2165 ft
Nearby Weather Stations

Elev 2165 ft 36.17 °N, 137.92 °E | Updated 48 minutes ago

Mostly Cloudy
Mostly Cloudy
70 °F
Feels Like 70 °F
N
5
Wind Variable Wind from North

Today
High -- | Low -- °F
--% Chance of Precip.
Yesterday
High -- | Low -- °F
Precip. -- in
4:33 AM 7:09 PM
Waning Gibbous, 95% visible
Pressure 29.83 in
Visibility 6.2 miles
Clouds Few 900 ft
Scattered Clouds 5000 ft
Mostly Cloudy 9000 ft
Dew Point 61 °F
Humidity 73%
Rainfall 0.00 in
Snow Depth Not available.
UV 6 out of 12
Pollen Not available.
Air Quality Not available.
Flu Activity Not available.
METAR RJAF 040200Z 35004KT 310V030 9999 FEW009 SCT050 BKN090 21/16 Q1010

More Conditions Fewer Conditions

Pressure 29.83 in
Visibility 6.2 miles
Clouds Few 900 ft
Scattered Clouds 5000 ft
Mostly Cloudy 9000 ft
Dew Point 61 °F
Humidity 73%
Rainfall 0.00 in
Snow Depth Not available.
UV 6 out of 12
Pollen Not available.
Air Quality Not available.
Flu Activity Not available.
METAR RJAF 040200Z 35004KT 310V030 9999 FEW009 SCT050 BKN090 21/16 Q1010

More Conditions Fewer Conditions

10-Day Weather Forecast

×

Almanac

Astronomy

Jul. 04, 2015 Rise Set
Actual Time
Civil Twilight
Nautical Twilight
Astronomical Twilight
Moon
Length of Visible Light
Length of Day
Tomorrow will be .
, % of the Moon is Illuminated

Today's Extremes

Country Highs Country Lows

Community

WunderPhotos

Upload Photos

1,834,902 photos uploaded!

WunderBlogs® & News

Nearby

Air Quality

  Air Quality AQ Index Pollutant
Not available.

Snow Depth

Station Depth Elevation

Earthquake Activity

City Distance Mag. Time & Date
Minimum magnitude displayed is 2.5.

Coastal Water Temperatures

Place Temperature

Stations

Nearby Weather Stations

Station Location Temp. Windchill Dew Point Humidity Wind Precip. Elev Updated Type